createdAt,value
2023-01-20T00:01:23.722Z,1.40
2023-01-20T00:03:53.446Z,1.40
2023-01-20T00:06:22.031Z,1.40
2023-01-20T00:08:52.343Z,1.50
2023-01-20T00:11:21.242Z,1.50
2023-01-20T00:13:54.910Z,1.50
2023-01-20T00:16:23.212Z,1.40
2023-01-20T00:18:51.402Z,1.40
2023-01-20T00:21:19.651Z,1.50
2023-01-20T00:23:49.104Z,1.50
2023-01-20T00:26:19.759Z,1.50
2023-01-20T00:28:48.627Z,1.50
2023-01-20T00:31:19.949Z,1.50
2023-01-20T00:33:49.442Z,1.50
2023-01-20T00:36:19.142Z,1.50
2023-01-20T00:38:47.325Z,1.50
2023-01-20T00:41:15.609Z,1.60
2023-01-20T00:43:44.446Z,1.60
2023-01-20T00:46:12.840Z,1.60
2023-01-20T00:48:42.783Z,1.60
2023-01-20T00:51:11.195Z,1.60
2023-01-20T00:53:39.215Z,1.60
2023-01-20T00:56:07.788Z,1.60
2023-01-20T00:58:35.921Z,1.70
2023-01-20T01:01:04.026Z,1.70
2023-01-20T01:06:15.126Z,1.70
2023-01-20T01:08:43.722Z,1.70
2023-01-20T01:11:33.748Z,1.70
2023-01-20T01:14:01.765Z,1.70
2023-01-20T01:16:29.943Z,1.70
2023-01-20T01:18:57.942Z,1.70
2023-01-20T01:21:25.978Z,1.70
2023-01-20T01:23:54.526Z,1.70
2023-01-20T01:26:22.636Z,1.70
2023-01-20T01:28:52.192Z,1.70
2023-01-20T01:31:21.980Z,1.70
2023-01-20T01:33:50.107Z,1.70
2023-01-20T01:36:18.798Z,1.70
2023-01-20T01:38:57.591Z,1.70
2023-01-20T01:41:27.594Z,1.80
2023-01-20T01:44:06.201Z,1.80
2023-01-20T01:46:34.250Z,1.70
2023-01-20T01:49:04.898Z,1.60
2023-01-20T01:51:36.593Z,1.60
2023-01-20T01:54:09.378Z,1.60
2023-01-20T01:56:38.902Z,1.60
2023-01-20T01:59:09.192Z,1.60
2023-01-20T02:01:40.644Z,1.70
2023-01-20T02:04:12.270Z,1.70
2023-01-20T02:06:42.205Z,1.70
2023-01-20T02:09:10.704Z,1.70
2023-01-20T02:11:41.595Z,1.70
2023-01-20T02:14:11.127Z,1.70
2023-01-20T02:16:48.678Z,1.70
2023-01-20T02:19:41.374Z,1.70
2023-01-20T02:22:22.183Z,1.80
2023-01-20T02:25:28.248Z,1.80
2023-01-20T02:28:17.609Z,1.80
2023-01-20T02:31:24.142Z,1.80
2023-01-20T02:33:57.925Z,1.80
2023-01-20T02:36:31.167Z,1.80
2023-01-20T02:39:04.097Z,1.80
2023-01-20T02:41:40.453Z,1.80
2023-01-20T02:44:14.528Z,1.80
2023-01-20T02:46:49.006Z,1.90
2023-01-20T02:49:24.875Z,1.80
2023-01-20T02:51:57.882Z,1.90
2023-01-20T02:54:29.947Z,1.90
2023-01-20T02:57:00.980Z,1.90
2023-01-20T02:59:34.094Z,1.90
2023-01-20T03:02:05.790Z,1.90
2023-01-20T03:04:39.670Z,1.90
2023-01-20T03:07:11.003Z,2.00
2023-01-20T03:09:44.185Z,2.00
2023-01-20T03:12:18.998Z,2.00
2023-01-20T03:14:46.991Z,2.00
2023-01-20T03:17:14.971Z,2.00
2023-01-20T03:19:44.343Z,2.00
2023-01-20T03:22:12.378Z,2.00
2023-01-20T03:24:42.966Z,2.00
2023-01-20T03:27:12.280Z,2.00
2023-01-20T03:29:40.712Z,2.00
2023-01-20T03:32:11.502Z,2.00
2023-01-20T03:34:42.792Z,2.00
2023-01-20T03:37:13.568Z,2.00
2023-01-20T03:39:41.981Z,2.00
2023-01-20T03:42:14.929Z,2.00
2023-01-20T03:45:00.445Z,2.00
2023-01-20T03:47:41.348Z,2.00
2023-01-20T03:50:16.816Z,2.00
2023-01-20T03:52:53.443Z,2.00
2023-01-20T03:55:25.723Z,2.00
2023-01-20T03:57:58.453Z,2.00
2023-01-20T04:00:29.754Z,2.00
2023-01-20T04:03:00.149Z,2.00
2023-01-20T04:05:29.256Z,2.00
2023-01-20T04:08:03.463Z,2.00
2023-01-20T04:10:33.796Z,2.00
2023-01-20T04:13:01.785Z,2.10
2023-01-20T04:15:33.305Z,2.10
2023-01-20T04:18:12.207Z,2.00
2023-01-20T04:20:40.540Z,2.10
2023-01-20T04:23:15.541Z,2.10
2023-01-20T04:25:44.466Z,2.10
2023-01-20T04:28:12.531Z,2.10
2023-01-20T04:30:40.557Z,2.10
2023-01-20T04:33:08.569Z,2.10
2023-01-20T04:35:36.585Z,2.10
2023-01-20T04:38:04.643Z,2.10
2023-01-20T04:40:34.017Z,2.10
2023-01-20T04:43:02.004Z,2.20
2023-01-20T04:45:30.012Z,2.20
2023-01-20T04:47:58.003Z,2.10
2023-01-20T04:50:25.997Z,2.10
2023-01-20T04:52:56.646Z,2.10
2023-01-20T04:55:26.407Z,2.10
2023-01-20T04:57:55.756Z,2.10
2023-01-20T05:00:23.869Z,2.10
2023-01-20T05:02:51.962Z,2.10
2023-01-20T05:05:19.946Z,2.10
2023-01-20T05:07:47.959Z,2.20
2023-01-20T05:10:16.070Z,2.10
2023-01-20T05:12:44.017Z,2.10
2023-01-20T05:15:13.724Z,2.10
2023-01-20T05:17:42.003Z,2.20
2023-01-20T05:20:11.433Z,2.20
2023-01-20T05:22:39.399Z,2.20
2023-01-20T05:25:08.172Z,2.20
2023-01-20T05:27:36.223Z,2.20
2023-01-20T05:30:04.377Z,2.20
2023-01-20T05:32:34.094Z,2.20
2023-01-20T05:35:02.074Z,2.20
2023-01-20T05:37:30.042Z,2.20
2023-01-20T05:39:58.043Z,2.20
2023-01-20T05:42:26.025Z,2.20
2023-01-20T05:44:54.031Z,2.20
2023-01-20T05:47:22.018Z,2.20
2023-01-20T05:49:51.390Z,2.20
2023-01-20T05:52:19.394Z,2.30
2023-01-20T05:54:47.397Z,2.20
2023-01-20T05:57:18.198Z,2.30
2023-01-20T05:59:47.655Z,2.20
2023-01-20T06:02:18.739Z,2.30
2023-01-20T06:04:46.983Z,2.20
2023-01-20T06:07:16.767Z,2.20
2023-01-20T06:09:44.822Z,2.30
2023-01-20T06:12:12.778Z,2.20
2023-01-20T06:14:40.741Z,2.30
2023-01-20T06:17:08.707Z,2.20
2023-01-20T06:19:36.687Z,2.20
2023-01-20T06:22:05.039Z,2.20
2023-01-20T06:24:34.407Z,2.20
2023-01-20T06:27:02.379Z,2.10
2023-01-20T06:29:31.778Z,2.10
2023-01-20T06:31:59.819Z,2.10
2023-01-20T06:34:27.836Z,2.10
2023-01-20T06:36:55.921Z,2.10
2023-01-20T06:39:23.954Z,2.10
2023-01-20T06:41:53.362Z,2.20
2023-01-20T06:44:21.310Z,2.20
2023-01-20T06:46:49.398Z,2.20
2023-01-20T06:49:17.420Z,2.20
2023-01-20T06:51:47.781Z,2.20
2023-01-20T06:54:16.058Z,2.20
2023-01-20T06:56:44.067Z,2.20
2023-01-20T06:59:13.758Z,2.20
2023-01-20T07:01:42.043Z,2.20
2023-01-20T07:06:41.637Z,2.20
2023-01-20T07:09:11.283Z,2.20
2023-01-20T07:11:39.445Z,2.20
2023-01-20T07:14:08.192Z,2.20
2023-01-20T07:16:37.901Z,2.20
2023-01-20T07:19:06.069Z,2.30
2023-01-20T07:21:34.024Z,2.30
2023-01-20T07:24:02.487Z,2.30
2023-01-20T07:26:30.781Z,2.30
2023-01-20T07:28:59.618Z,2.20
2023-01-20T07:31:31.326Z,2.30
2023-01-20T07:34:00.790Z,2.30
2023-01-20T07:36:29.259Z,2.40
2023-01-20T07:38:57.301Z,2.40
2023-01-20T07:41:25.368Z,2.40
2023-01-20T07:43:55.271Z,2.40
2023-01-20T07:46:23.494Z,2.40
2023-01-20T07:48:51.473Z,2.30
2023-01-20T07:51:20.804Z,2.40
2023-01-20T07:53:50.944Z,2.40
2023-01-20T07:56:20.533Z,2.40
2023-01-20T07:58:50.513Z,2.40
2023-01-20T08:01:20.883Z,2.40
2023-01-20T08:03:49.452Z,2.40
2023-01-20T08:06:21.067Z,2.50
2023-01-20T08:08:49.441Z,2.40
2023-01-20T08:11:19.422Z,2.50
2023-01-20T08:13:47.892Z,2.50
2023-01-20T08:16:17.615Z,2.50
2023-01-20T08:18:46.232Z,2.50
2023-01-20T08:21:21.568Z,2.60
2023-01-20T08:23:49.619Z,2.50
2023-01-20T08:26:19.243Z,2.50
2023-01-20T08:28:47.252Z,2.50
2023-01-20T08:31:17.376Z,2.60
2023-01-20T08:33:46.715Z,2.60
2023-01-20T08:36:17.011Z,2.60
2023-01-20T08:38:47.515Z,2.60
2023-01-20T08:41:17.779Z,2.60
2023-01-20T08:43:45.878Z,2.60
2023-01-20T08:46:16.381Z,2.60
2023-01-20T08:48:45.664Z,2.60
2023-01-20T08:51:16.047Z,2.60
2023-01-20T08:53:44.256Z,2.60
2023-01-20T08:56:14.436Z,2.60
2023-01-20T08:58:42.529Z,2.60
2023-01-20T09:01:11.211Z,2.60
2023-01-20T09:03:39.876Z,2.70
2023-01-20T09:06:09.088Z,2.70
2023-01-20T09:08:38.104Z,2.70
2023-01-20T09:11:07.980Z,2.70
2023-01-20T09:13:37.544Z,2.70
2023-01-20T09:16:06.298Z,2.70
2023-01-20T09:18:35.674Z,2.80
2023-01-20T09:21:06.733Z,2.70
2023-01-20T09:23:36.183Z,2.80
2023-01-20T09:26:05.255Z,2.90
2023-01-20T09:28:33.270Z,2.90
2023-01-20T09:31:06.714Z,2.90
2023-01-20T09:33:38.085Z,2.90
2023-01-20T09:36:07.430Z,2.90
2023-01-20T09:38:52.683Z,2.90
2023-01-20T09:41:45.823Z,2.90
2023-01-20T09:44:33.647Z,3.00
2023-01-20T09:47:21.225Z,3.00
2023-01-20T09:50:41.453Z,2.90
2023-01-20T09:53:16.139Z,2.90
2023-01-20T09:55:52.202Z,3.00
2023-01-20T09:58:28.778Z,3.00
2023-01-20T10:01:03.888Z,3.00
2023-01-20T10:03:40.874Z,3.10
2023-01-20T10:06:14.230Z,3.10
2023-01-20T10:09:03.897Z,2.90
2023-01-20T10:11:38.169Z,2.80
2023-01-20T10:14:15.019Z,2.80
2023-01-20T10:16:49.733Z,2.80
2023-01-20T10:19:28.087Z,2.90
2023-01-20T10:22:02.530Z,3.00
2023-01-20T10:24:35.305Z,3.00
2023-01-20T10:27:04.742Z,3.00
2023-01-20T10:29:37.042Z,3.00
2023-01-20T10:32:10.817Z,2.90
2023-01-20T10:34:45.359Z,2.90
2023-01-20T10:37:15.287Z,2.90
2023-01-20T10:39:49.257Z,2.90
2023-01-20T10:42:18.505Z,2.90
2023-01-20T10:44:49.184Z,3.00
2023-01-20T10:47:24.838Z,3.00
2023-01-20T10:50:23.750Z,3.10
2023-01-20T10:53:21.898Z,2.90
2023-01-20T10:56:05.945Z,2.90
2023-01-20T10:58:37.179Z,2.90
2023-01-20T11:01:08.968Z,2.80
2023-01-20T11:03:40.599Z,2.70
2023-01-20T11:06:18.220Z,2.70
2023-01-20T11:08:46.366Z,2.50
2023-01-20T11:11:17.811Z,2.50
2023-01-20T11:13:46.293Z,2.70
2023-01-20T11:16:18.635Z,2.70
2023-01-20T11:19:00.909Z,2.70
2023-01-20T11:21:32.517Z,2.60
2023-01-20T11:24:01.470Z,2.60
2023-01-20T11:26:32.244Z,2.60
2023-01-20T11:29:02.331Z,2.70
2023-01-20T11:31:41.894Z,2.60
2023-01-20T11:34:29.245Z,2.70
2023-01-20T11:37:19.246Z,2.70
2023-01-20T11:40:00.328Z,2.70
2023-01-20T11:42:30.702Z,2.70
2023-01-20T11:45:19.777Z,2.60
2023-01-20T11:47:59.668Z,2.60
2023-01-20T11:50:32.706Z,2.60
2023-01-20T11:53:24.706Z,2.70
2023-01-20T11:55:55.276Z,2.70
2023-01-20T11:58:25.127Z,2.70
2023-01-20T12:01:00.004Z,2.70
2023-01-20T12:03:49.075Z,2.70
2023-01-20T12:06:22.026Z,2.60
2023-01-20T12:08:53.757Z,2.70
2023-01-20T12:11:27.454Z,2.80
2023-01-20T12:14:28.596Z,2.80
2023-01-20T12:17:12.163Z,2.80
2023-01-20T12:19:54.111Z,2.70
2023-01-20T12:22:26.268Z,2.60
2023-01-20T12:25:10.345Z,2.60
2023-01-20T12:27:44.732Z,2.60
2023-01-20T12:30:39.516Z,2.70
2023-01-20T12:33:18.424Z,2.70
2023-01-20T12:36:08.068Z,2.80
2023-01-20T12:38:46.353Z,2.70
2023-01-20T12:41:25.395Z,2.60
2023-01-20T12:44:03.158Z,2.60
2023-01-20T12:46:39.336Z,2.60
2023-01-20T12:49:43.260Z,2.50
2023-01-20T12:52:24.616Z,2.40
2023-01-20T12:55:32.037Z,2.40
2023-01-20T12:58:08.624Z,2.40
2023-01-20T13:00:47.384Z,2.40
2023-01-20T13:03:44.033Z,2.30
2023-01-20T13:06:32.578Z,2.30
2023-01-20T13:09:10.939Z,2.10
2023-01-20T13:11:50.770Z,2.20
2023-01-20T13:14:23.236Z,2.20
2023-01-20T13:16:56.852Z,2.40
2023-01-20T13:19:30.555Z,2.50
2023-01-20T13:22:08.106Z,2.60
2023-01-20T13:24:37.135Z,2.50
2023-01-20T13:27:05.345Z,2.50
2023-01-20T13:29:54.070Z,2.50
2023-01-20T13:32:36.822Z,2.60
2023-01-20T13:35:45.575Z,2.60
2023-01-20T13:38:22.346Z,2.50
2023-01-20T13:40:58.728Z,2.40
2023-01-20T13:43:50.570Z,2.40
2023-01-20T13:46:48.396Z,2.30
2023-01-20T13:49:45.381Z,2.20
2023-01-20T13:52:13.441Z,2.30
2023-01-20T13:54:46.866Z,2.20
2023-01-20T13:57:37.615Z,2.30
2023-01-20T14:00:17.208Z,2.40
2023-01-20T14:02:47.687Z,2.40
2023-01-20T14:05:32.858Z,2.30
2023-01-20T14:08:01.436Z,2.30
2023-01-20T14:10:29.611Z,2.30
2023-01-20T14:12:57.573Z,2.50
2023-01-20T14:15:33.078Z,2.50
2023-01-20T14:18:03.609Z,2.60
2023-01-20T14:20:32.285Z,2.50
2023-01-20T14:23:37.617Z,2.40
2023-01-20T14:26:11.158Z,2.10
2023-01-20T14:28:46.329Z,2.10
2023-01-20T14:31:23.062Z,2.10
2023-01-20T14:33:57.640Z,2.10
2023-01-20T14:36:28.176Z,2.10
2023-01-20T14:38:58.712Z,2.20
2023-01-20T14:41:29.434Z,2.20
2023-01-20T14:43:58.038Z,2.20
2023-01-20T14:46:27.434Z,2.20
2023-01-20T14:48:58.032Z,2.30
2023-01-20T14:51:26.464Z,2.30
2023-01-20T14:54:34.898Z,2.30
2023-01-20T14:57:13.579Z,2.40
2023-01-20T14:59:41.594Z,2.40
2023-01-20T15:02:19.545Z,2.40
2023-01-20T15:04:48.951Z,2.50
2023-01-20T15:07:20.405Z,2.40
2023-01-20T15:09:55.023Z,2.40
2023-01-20T15:12:40.296Z,2.40
2023-01-20T15:15:20.107Z,2.40
2023-01-20T15:18:15.919Z,2.30
2023-01-20T15:20:47.909Z,2.40
2023-01-20T15:23:19.972Z,2.50
2023-01-20T15:25:48.447Z,2.50
2023-01-20T15:28:24.937Z,2.50
2023-01-20T15:30:54.173Z,2.50
2023-01-20T15:33:23.951Z,2.50
2023-01-20T15:35:58.596Z,2.50
2023-01-20T15:38:30.245Z,2.60
2023-01-20T15:40:58.547Z,2.70
2023-01-20T15:43:26.533Z,2.60
2023-01-20T15:45:54.483Z,2.60
2023-01-20T15:48:24.355Z,2.50
2023-01-20T15:50:52.391Z,2.40
2023-01-20T15:53:21.776Z,2.40
2023-01-20T15:55:51.738Z,2.40
2023-01-20T15:58:25.935Z,2.30
2023-01-20T16:00:54.975Z,2.30
2023-01-20T16:03:23.432Z,2.40
2023-01-20T16:05:52.194Z,2.30
2023-01-20T16:08:23.853Z,2.30
2023-01-20T16:10:51.909Z,2.20
2023-01-20T16:13:19.869Z,2.20
2023-01-20T16:15:47.892Z,2.10
2023-01-20T16:18:18.422Z,2.20
2023-01-20T16:20:47.958Z,2.10
2023-01-20T16:23:16.484Z,2.00
2023-01-20T16:25:46.389Z,1.90
2023-01-20T16:28:18.389Z,2.00
2023-01-20T16:30:46.427Z,2.10
2023-01-20T16:33:19.245Z,2.20
2023-01-20T16:35:48.000Z,2.30
2023-01-20T16:38:18.039Z,2.30
2023-01-20T16:40:50.957Z,2.30
2023-01-20T16:43:19.002Z,2.20
2023-01-20T16:45:52.605Z,2.10
2023-01-20T16:48:21.311Z,1.90
2023-01-20T16:50:49.517Z,1.90
2023-01-20T16:53:18.406Z,1.90
2023-01-20T16:55:49.252Z,1.90
2023-01-20T16:58:17.763Z,2.10
2023-01-20T17:00:45.774Z,2.00
2023-01-20T17:03:13.788Z,2.10
2023-01-20T17:05:41.787Z,2.10
2023-01-20T17:08:10.968Z,2.10
2023-01-20T17:10:38.943Z,2.10
2023-01-20T17:13:08.256Z,2.10
2023-01-20T17:15:40.475Z,1.90
2023-01-20T17:18:09.972Z,1.80
2023-01-20T17:20:37.966Z,1.70
2023-01-20T17:23:05.930Z,1.70
2023-01-20T17:25:33.864Z,1.80
2023-01-20T17:28:01.836Z,1.90
2023-01-20T17:30:31.170Z,1.90
2023-01-20T17:32:59.171Z,1.90
2023-01-20T17:35:27.832Z,2.00
2023-01-20T17:37:55.833Z,2.00
2023-01-20T17:40:23.822Z,2.10
2023-01-20T17:42:53.846Z,2.10
2023-01-20T17:45:21.852Z,2.20
2023-01-20T17:47:52.898Z,2.10
2023-01-20T17:50:20.897Z,2.10
2023-01-20T17:52:49.117Z,2.20
2023-01-20T17:55:17.492Z,2.20
2023-01-20T17:57:45.616Z,2.30
2023-01-20T18:00:14.940Z,2.30
2023-01-20T18:02:43.144Z,2.20
2023-01-20T18:05:12.456Z,2.10
2023-01-20T18:07:40.454Z,2.20
2023-01-20T18:10:08.914Z,2.00
2023-01-20T18:12:36.891Z,1.90
2023-01-20T18:15:05.422Z,2.00
2023-01-20T18:17:34.355Z,2.00
2023-01-20T18:20:02.436Z,2.00
2023-01-20T18:22:31.777Z,2.00
2023-01-20T18:24:59.728Z,2.00
2023-01-20T18:27:27.706Z,2.00
2023-01-20T18:29:55.703Z,2.20
2023-01-20T18:32:23.662Z,2.10
2023-01-20T18:34:51.603Z,2.10
2023-01-20T18:37:19.557Z,2.10
2023-01-20T18:39:48.887Z,1.90
2023-01-20T18:42:16.855Z,2.00
2023-01-20T18:44:44.798Z,2.00
2023-01-20T18:47:12.763Z,2.00
2023-01-20T18:49:40.736Z,2.00
2023-01-20T18:52:09.714Z,2.00
2023-01-20T18:54:39.221Z,2.10
2023-01-20T18:57:09.205Z,2.00
2023-01-20T18:59:37.270Z,2.00
2023-01-20T19:02:05.279Z,2.00
2023-01-20T19:04:33.642Z,2.00
2023-01-20T19:07:01.637Z,1.90
2023-01-20T19:09:29.640Z,1.80
2023-01-20T19:11:57.618Z,1.80
2023-01-20T19:14:27.748Z,1.70
2023-01-20T19:16:55.872Z,1.80
2023-01-20T19:19:24.000Z,1.80
2023-01-20T19:21:52.880Z,1.80
2023-01-20T19:24:22.654Z,1.90
2023-01-20T19:26:50.787Z,1.80
2023-01-20T19:29:19.673Z,1.70
2023-01-20T19:31:49.548Z,1.70
2023-01-20T19:34:17.599Z,1.70
2023-01-20T19:36:45.609Z,1.70
2023-01-20T19:39:13.586Z,1.70
2023-01-20T19:41:41.778Z,1.70
2023-01-20T19:44:13.442Z,1.70
2023-01-20T19:46:41.773Z,1.70
2023-01-20T19:49:12.507Z,1.70
2023-01-20T19:51:40.638Z,1.60
2023-01-20T19:54:08.916Z,1.60
2023-01-20T19:56:37.146Z,1.80
2023-01-20T19:59:06.924Z,1.90
2023-01-20T20:01:36.277Z,1.90
2023-01-20T20:04:06.505Z,1.60
2023-01-20T20:06:38.015Z,1.50
2023-01-20T20:09:08.151Z,1.50
2023-01-20T20:11:36.429Z,1.50
2023-01-20T20:14:06.014Z,1.50
2023-01-20T20:16:35.769Z,1.50
2023-01-20T20:19:04.879Z,1.40
2023-01-20T20:21:32.868Z,1.30
2023-01-20T20:24:03.020Z,1.30
2023-01-20T20:26:32.555Z,1.30
2023-01-20T20:29:02.087Z,1.30
2023-01-20T20:31:30.670Z,1.30
2023-01-20T20:33:59.535Z,1.40
2023-01-20T20:36:30.805Z,1.30
2023-01-20T20:38:59.318Z,1.30
2023-01-20T20:41:31.530Z,1.40
2023-01-20T20:44:00.614Z,1.30
2023-01-20T20:46:29.267Z,1.50
2023-01-20T20:48:59.691Z,1.50
2023-01-20T20:51:28.901Z,1.50
2023-01-20T20:53:57.863Z,1.40
2023-01-20T20:56:27.908Z,1.30
2023-01-20T20:59:02.891Z,1.10
2023-01-20T21:01:32.756Z,1.20
2023-01-20T21:04:01.012Z,1.10
2023-01-20T21:06:29.208Z,1.10
2023-01-20T21:08:58.908Z,1.20
2023-01-20T21:11:27.365Z,1.20
2023-01-20T21:13:55.734Z,1.20
2023-01-20T21:16:26.397Z,1.20
2023-01-20T21:18:56.524Z,1.20
2023-01-20T21:21:25.256Z,1.30
2023-01-20T21:23:55.695Z,1.50
2023-01-20T21:26:24.967Z,1.50
2023-01-20T21:28:53.957Z,1.40
2023-01-20T21:31:26.622Z,1.50
2023-01-20T21:33:57.006Z,1.50
2023-01-20T21:36:25.665Z,1.50
2023-01-20T21:38:53.814Z,1.50
2023-01-20T21:41:22.021Z,1.50
2023-01-20T21:44:07.923Z,1.50
2023-01-20T21:46:39.939Z,1.60
2023-01-20T21:49:26.766Z,1.50
2023-01-20T21:52:12.373Z,1.40
2023-01-20T21:54:41.265Z,1.30
2023-01-20T21:57:09.820Z,1.10
2023-01-20T21:59:38.109Z,1.10
2023-01-20T22:02:08.355Z,1.10
2023-01-20T22:04:36.366Z,1.20
2023-01-20T22:07:04.404Z,1.20
2023-01-20T22:09:32.653Z,1.20
2023-01-20T22:12:00.884Z,1.30
2023-01-20T22:14:28.891Z,1.30
2023-01-20T22:16:56.857Z,1.30
2023-01-20T22:19:26.290Z,1.20
2023-01-20T22:21:54.565Z,1.20
2023-01-20T22:24:22.562Z,1.30
2023-01-20T22:26:50.846Z,1.30
2023-01-20T22:29:19.626Z,1.30
2023-01-20T22:31:47.999Z,1.20
2023-01-20T22:34:16.281Z,1.10
2023-01-20T22:36:46.629Z,1.10
2023-01-20T22:39:15.924Z,1.20
2023-01-20T22:41:44.253Z,1.20
2023-01-20T22:44:12.285Z,1.30
2023-01-20T22:46:40.270Z,1.20
2023-01-20T22:49:08.316Z,1.30
2023-01-20T22:51:36.351Z,1.40
2023-01-20T22:54:07.310Z,1.30
2023-01-20T22:56:35.306Z,1.30
2023-01-20T22:59:03.293Z,1.40
2023-01-20T23:01:33.415Z,1.30
2023-01-20T23:04:02.970Z,1.20
2023-01-20T23:06:33.655Z,1.00
2023-01-20T23:09:01.807Z,1.10
2023-01-20T23:11:31.706Z,1.10
2023-01-20T23:14:00.543Z,1.30
2023-01-20T23:16:28.740Z,1.20
2023-01-20T23:18:56.782Z,1.10
2023-01-20T23:21:25.383Z,1.10
2023-01-20T23:23:55.230Z,1.10
2023-01-20T23:26:28.475Z,1.10
2023-01-20T23:28:58.247Z,1.10
2023-01-20T23:31:28.409Z,1.00
2023-01-20T23:33:56.555Z,1.00
2023-01-20T23:36:26.391Z,1.00
2023-01-20T23:38:55.273Z,1.00
2023-01-20T23:41:23.548Z,1.10
2023-01-20T23:43:51.623Z,1.20
2023-01-20T23:46:21.090Z,1.10
2023-01-20T23:48:49.325Z,1.00
2023-01-20T23:51:17.456Z,1.00
2023-01-20T23:53:45.683Z,1.10
2023-01-20T23:56:16.022Z,1.20
2023-01-20T23:58:44.685Z,1.30
